createdAt,value
2023-05-16T00:01:50.066Z,2.25
2023-05-16T00:06:52.639Z,2.28
2023-05-16T00:11:55.160Z,1.92
2023-05-16T00:17:01.490Z,2.53
2023-05-16T00:22:04.640Z,2.20
2023-05-16T00:27:07.180Z,2.33
2023-05-16T00:32:09.870Z,2.55
2023-05-16T00:37:12.372Z,2.25
2023-05-16T00:42:14.726Z,2.50
2023-05-16T00:47:17.148Z,2.45
2023-05-16T00:52:19.512Z,2.40
2023-05-16T00:57:22.003Z,2.70
2023-05-16T01:02:28.737Z,3.03
2023-05-16T01:07:32.321Z,3.10
2023-05-16T01:12:49.580Z,2.40
2023-05-16T01:18:07.123Z,2.72
2023-05-16T01:23:40.412Z,3.00
2023-05-16T01:28:46.766Z,3.30
2023-05-16T01:33:49.769Z,2.67
2023-05-16T01:38:55.092Z,3.13
2023-05-16T01:44:05.477Z,2.83
2023-05-16T01:49:39.855Z,3.17
2023-05-16T01:54:48.639Z,2.55
2023-05-16T01:59:51.039Z,2.80
2023-05-16T02:04:53.391Z,2.80
2023-05-16T02:09:55.722Z,2.45
2023-05-16T02:14:58.138Z,3.13
2023-05-16T02:20:06.930Z,2.60
2023-05-16T02:25:10.188Z,2.72
2023-05-16T02:30:13.044Z,3.75
2023-05-16T02:35:15.801Z,4.45
2023-05-16T02:55:31.793Z,3.63
2023-05-16T03:00:34.314Z,4.25
2023-05-16T03:05:36.805Z,4.72
2023-05-16T03:10:39.189Z,3.92
2023-05-16T03:15:42.311Z,7.90
2023-05-16T03:20:45.089Z,4.50
2023-05-16T03:25:48.178Z,4.00
2023-05-16T03:30:50.520Z,11.45
2023-05-16T03:35:53.084Z,7.03
2023-05-16T03:40:55.872Z,13.63
2023-05-16T03:45:58.234Z,20.27
2023-05-16T03:51:00.551Z,6.93
2023-05-16T03:56:02.856Z,4.40
2023-05-16T04:01:05.166Z,4.45
2023-05-16T04:06:08.588Z,2.40
2023-05-16T04:11:11.225Z,2.55
2023-05-16T04:16:13.702Z,3.22
2023-05-16T04:21:16.190Z,2.40
2023-05-16T04:26:18.604Z,1.50
2023-05-16T04:31:22.299Z,1.85
2023-05-16T04:36:24.607Z,2.15
2023-05-16T04:41:27.040Z,1.90
2023-05-16T04:46:29.500Z,1.73
2023-05-16T04:51:34.155Z,1.90
2023-05-16T04:56:38.224Z,1.58
2023-05-16T05:01:41.062Z,1.70
2023-05-16T05:06:43.921Z,2.25
2023-05-16T05:11:46.722Z,3.15
2023-05-16T05:16:49.048Z,2.28
2023-05-16T05:21:51.429Z,3.42
2023-05-16T05:26:53.893Z,4.72
2023-05-16T05:31:56.383Z,3.60
2023-05-16T05:36:59.085Z,4.30
2023-05-16T05:42:03.860Z,2.67
2023-05-16T05:47:07.313Z,1.98
2023-05-16T05:52:09.771Z,1.70
2023-05-16T05:57:12.289Z,2.15
2023-05-16T06:02:14.970Z,2.20
2023-05-16T06:12:20.873Z,2.15
2023-05-16T06:17:23.397Z,2.10
2023-05-16T06:22:26.009Z,1.65
2023-05-16T06:27:28.492Z,2.10
2023-05-16T06:32:31.160Z,1.70
2023-05-16T06:42:35.888Z,1.63
2023-05-16T06:47:38.445Z,2.45
2023-05-16T06:52:41.030Z,2.38
2023-05-16T06:57:43.500Z,2.65
2023-05-16T07:02:48.870Z,1.75
2023-05-16T07:07:51.319Z,1.98
2023-05-16T07:12:53.912Z,2.42
2023-05-16T07:17:56.405Z,1.45
2023-05-16T07:22:59.760Z,2.53
2023-05-16T07:28:02.390Z,2.05
2023-05-16T07:33:05.275Z,2.20
2023-05-16T07:43:09.952Z,2.17
2023-05-16T07:48:12.442Z,2.63
2023-05-16T07:53:14.974Z,2.38
2023-05-16T07:58:17.467Z,2.17
2023-05-16T08:03:20.142Z,2.30
2023-05-16T08:13:25.008Z,1.80
2023-05-16T08:18:27.645Z,2.78
2023-05-16T08:23:30.170Z,2.00
2023-05-16T08:28:32.780Z,2.15
2023-05-16T08:38:37.501Z,2.28
2023-05-16T08:43:40.116Z,2.35
2023-05-16T08:48:44.181Z,3.60
2023-05-16T08:53:54.674Z,2.72
2023-05-16T08:58:58.383Z,2.00
2023-05-16T09:04:01.632Z,2.20
2023-05-16T09:09:08.024Z,2.85
2023-05-16T09:14:10.638Z,3.80
2023-05-16T09:19:14.545Z,2.33
2023-05-16T09:24:17.312Z,3.58
2023-05-16T09:29:20.404Z,2.50
2023-05-16T09:34:23.163Z,2.63
2023-05-16T09:39:27.838Z,2.08
2023-05-16T09:44:31.935Z,1.92
2023-05-16T09:49:37.675Z,2.25
2023-05-16T09:54:41.387Z,2.10
2023-05-16T09:59:46.083Z,2.50
2023-05-16T10:04:48.564Z,2.00
2023-05-16T10:09:53.162Z,1.90
2023-05-16T10:14:56.887Z,2.63
2023-05-16T10:20:05.980Z,2.17
2023-05-16T10:25:34.654Z,2.47
2023-05-16T10:30:40.885Z,2.08
2023-05-16T10:35:44.689Z,1.77
2023-05-16T10:40:48.294Z,2.15
2023-05-16T10:45:58.829Z,2.28
2023-05-16T10:51:03.539Z,2.00
2023-05-16T10:56:09.356Z,3.78
2023-05-16T11:01:22.711Z,2.28
2023-05-16T11:06:30.117Z,1.80
2023-05-16T11:11:55.752Z,4.32
2023-05-16T11:17:03.827Z,1.85
2023-05-16T11:22:19.589Z,1.70
2023-05-16T11:27:52.549Z,2.20
2023-05-16T11:32:56.192Z,1.80
2023-05-16T11:37:58.887Z,1.95
2023-05-16T11:43:07.104Z,1.40
2023-05-16T11:48:10.177Z,1.85
2023-05-16T11:53:14.817Z,1.50
2023-05-16T11:58:18.012Z,1.90
2023-05-16T12:03:21.478Z,1.45
2023-05-16T12:08:25.496Z,1.60
2023-05-16T12:13:28.481Z,2.03
2023-05-16T12:18:31.095Z,1.80
2023-05-16T12:23:34.512Z,1.30
2023-05-16T12:33:41.947Z,1.25
2023-05-16T12:38:47.709Z,1.15
2023-05-16T12:43:50.735Z,0.98
2023-05-16T12:49:05.432Z,1.67
2023-05-16T12:54:10.634Z,2.60
2023-05-16T12:59:16.297Z,2.38
2023-05-16T13:04:20.619Z,2.10
2023-05-16T13:09:24.034Z,2.00
2023-05-16T13:14:26.431Z,1.23
2023-05-16T13:19:29.099Z,1.00
2023-05-16T13:24:31.515Z,1.95
2023-05-16T13:29:33.909Z,2.22
2023-05-16T13:34:36.378Z,3.88
2023-05-16T13:39:38.881Z,1.70
2023-05-16T13:44:41.326Z,1.13
2023-05-16T13:49:44.081Z,4.20
2023-05-16T13:54:46.498Z,7.18
2023-05-16T14:00:17.715Z,4.10
2023-05-16T14:05:14.365Z,2.92
2023-05-16T14:10:16.831Z,1.85
2023-05-16T14:15:19.471Z,1.92
2023-05-16T14:20:22.052Z,1.95
2023-05-16T14:25:24.584Z,1.70
2023-05-16T14:30:27.611Z,1.98
2023-05-16T14:35:31.427Z,2.00
2023-05-16T14:40:34.587Z,1.67
2023-05-16T14:45:40.621Z,1.10
2023-05-16T14:50:43.393Z,1.00
2023-05-16T14:55:45.843Z,1.20
2023-05-16T15:00:48.500Z,1.65
2023-05-16T15:05:50.927Z,1.08
2023-05-16T15:10:53.375Z,0.85
2023-05-16T15:15:56.028Z,1.65
2023-05-16T15:20:58.506Z,1.15
2023-05-16T15:26:01.100Z,1.42
2023-05-16T15:31:05.876Z,1.58
2023-05-16T15:41:43.591Z,1.40
2023-05-16T15:46:47.259Z,1.80
2023-05-16T15:51:51.386Z,1.45
2023-05-16T15:56:53.959Z,1.42
2023-05-16T16:01:56.830Z,1.52
2023-05-16T16:06:59.433Z,1.85
2023-05-16T16:12:02.779Z,2.20
2023-05-16T16:17:05.295Z,2.38
2023-05-16T16:22:07.850Z,2.63
2023-05-16T16:27:10.336Z,3.80
2023-05-16T16:32:12.906Z,4.88
2023-05-16T16:37:15.413Z,4.57
2023-05-16T16:42:17.822Z,3.05
2023-05-16T16:47:20.345Z,2.72
2023-05-16T16:52:22.945Z,2.20
2023-05-16T16:57:25.612Z,2.60
2023-05-16T17:02:28.757Z,2.22
2023-05-16T17:07:31.789Z,2.75
2023-05-16T17:12:35.129Z,1.98
2023-05-16T17:17:37.598Z,2.35
2023-05-16T17:22:40.882Z,2.92
2023-05-16T17:27:44.929Z,2.38
2023-05-16T17:32:47.590Z,1.75
2023-05-16T17:37:50.975Z,2.30
2023-05-16T17:42:53.510Z,2.22
2023-05-16T17:47:56.122Z,3.20
2023-05-16T17:52:59.294Z,3.63
2023-05-16T17:58:01.818Z,4.30
2023-05-16T18:03:05.433Z,3.58
2023-05-16T18:08:08.727Z,3.45
2023-05-16T18:13:12.652Z,3.90
2023-05-16T18:18:15.234Z,3.17
2023-05-16T18:23:17.741Z,4.57
2023-05-16T18:28:21.095Z,4.07
2023-05-16T18:33:23.657Z,3.80
2023-05-16T18:38:32.612Z,4.20
2023-05-16T18:43:36.897Z,3.92
2023-05-16T18:48:39.406Z,4.80
2023-05-16T18:53:42.019Z,6.43
2023-05-16T18:58:44.584Z,6.10
2023-05-16T19:03:47.233Z,6.90
2023-05-16T19:08:50.064Z,6.88
2023-05-16T19:13:52.559Z,5.75
2023-05-16T19:18:55.225Z,5.07
2023-05-16T19:23:57.861Z,5.38
2023-05-16T19:29:00.686Z,3.83
2023-05-16T19:34:03.367Z,4.50
2023-05-16T19:39:06.087Z,4.82
2023-05-16T19:44:08.657Z,3.85
2023-05-16T19:49:11.160Z,4.00
2023-05-16T19:54:13.814Z,3.95
2023-05-16T19:59:17.209Z,4.75
2023-05-16T20:04:19.777Z,5.63
2023-05-16T20:09:22.485Z,5.85
2023-05-16T20:14:25.575Z,6.13
2023-05-16T20:19:30.211Z,6.20
2023-05-16T20:24:32.765Z,6.28
2023-05-16T20:29:35.412Z,6.38
2023-05-16T20:34:39.178Z,6.30
2023-05-16T20:39:43.371Z,5.95
2023-05-16T20:44:45.921Z,6.18
2023-05-16T20:49:48.366Z,5.57
2023-05-16T20:54:50.952Z,5.97
2023-05-16T20:59:53.497Z,5.47
2023-05-16T21:04:57.438Z,5.38
2023-05-16T21:10:01.822Z,5.80
2023-05-16T21:15:07.761Z,5.75
2023-05-16T21:20:10.509Z,5.28
2023-05-16T21:25:12.990Z,5.75
2023-05-16T21:30:15.660Z,5.38
2023-05-16T21:35:18.131Z,6.25
2023-05-16T21:40:25.157Z,5.97
2023-05-16T21:45:28.048Z,5.60
2023-05-16T21:50:31.234Z,5.68
2023-05-16T21:55:33.769Z,5.90
2023-05-16T22:00:36.730Z,6.40
2023-05-16T22:05:39.114Z,5.07
2023-05-16T22:10:41.501Z,5.20
2023-05-16T22:15:49.297Z,4.30
2023-05-16T22:20:58.446Z,4.25
2023-05-16T22:26:00.939Z,4.35
2023-05-16T22:31:03.495Z,5.18
2023-05-16T22:36:06.222Z,5.78
2023-05-16T22:41:08.759Z,4.90
2023-05-16T22:46:11.208Z,6.15
2023-05-16T22:51:13.831Z,8.50
2023-05-16T22:56:16.275Z,14.25
2023-05-16T23:01:18.635Z,12.27
2023-05-16T23:06:21.133Z,11.75
2023-05-16T23:11:23.488Z,10.50
2023-05-16T23:16:26.092Z,16.30
2023-05-16T23:21:28.604Z,12.20
2023-05-16T23:26:31.723Z,9.52
2023-05-16T23:31:34.206Z,7.13
2023-05-16T23:36:37.041Z,6.65
2023-05-16T23:41:39.736Z,6.25
2023-05-16T23:46:42.257Z,7.43
2023-05-16T23:51:56.757Z,7.10
2023-05-16T23:57:00.378Z,6.22
